Terminal Aerodrome Forecast
Issued by NWS Mt. Holly, NJ

Home | Current Version | Previous Version | Text Only | Print | Product List | Glossary On
Versions: 1 2 3 4 5 6 7 8 9 10 11 12 13 14 15 16 17 18 19 20
000
FTUS41 KPHI 020808 AAA
TAFILG
TAF AMD
KILG 020808Z 0208/0306 06005KT 6SM BR OVC004
      TEMPO 0208/0210 3SM -DZ BR
     FM021000 10005KT 4SM -SHRA BR OVC004
     FM021500 14005KT 6SM BR OVC007
     FM021900 17007KT P6SM OVC015
     FM030000 13005KT 5SM -SHRA BR OVC007
     FM030300 07005KT 3SM SHRA BR OVC004=

USA.gov is the U.S. government's official web portal to all federal, state and local government web resources and services.